createdAt,value
2018-07-25T00:00:59.819Z,3.80
2018-07-25T00:01:59.822Z,3.50
2018-07-25T00:02:59.830Z,3.60
2018-07-25T00:03:59.952Z,3.30
2018-07-25T00:04:59.848Z,3.50
2018-07-25T00:05:59.860Z,3.50
2018-07-25T00:06:59.877Z,4.10
2018-07-25T00:07:59.874Z,3.50
2018-07-25T00:08:59.889Z,3.80
2018-07-25T00:09:59.889Z,3.70
2018-07-25T00:10:59.904Z,3.00
2018-07-25T00:11:59.918Z,3.90
2018-07-25T00:12:59.922Z,3.60
2018-07-25T00:13:59.933Z,3.50
2018-07-25T00:14:59.941Z,4.20
2018-07-25T00:15:59.946Z,4.10
2018-07-25T00:16:59.961Z,3.40
2018-07-25T00:17:59.959Z,3.70
2018-07-25T00:18:59.971Z,3.80
2018-07-25T00:19:59.982Z,4.00
2018-07-25T00:20:59.990Z,3.60
2018-07-25T00:22:00.002Z,4.00
2018-07-25T00:23:00.004Z,3.90
2018-07-25T00:24:00.014Z,3.90
2018-07-25T00:25:00.028Z,3.50
2018-07-25T00:26:00.030Z,3.40
2018-07-25T00:27:00.036Z,4.00
2018-07-25T00:28:00.056Z,3.60
2018-07-25T00:29:00.055Z,3.80
2018-07-25T00:30:00.072Z,4.10
2018-07-25T00:31:00.079Z,4.00
2018-07-25T00:32:00.088Z,3.70
2018-07-25T00:33:00.094Z,3.60
2018-07-25T00:34:00.101Z,3.80
2018-07-25T00:35:00.111Z,3.60
2018-07-25T00:36:00.116Z,4.40
2018-07-25T00:37:00.129Z,4.10
2018-07-25T00:38:00.134Z,4.30
2018-07-25T00:39:00.142Z,4.40
2018-07-25T00:40:00.153Z,4.20
2018-07-25T00:41:00.163Z,3.60
2018-07-25T00:42:00.165Z,3.90
2018-07-25T00:43:00.181Z,4.00
2018-07-25T00:44:00.179Z,3.90
2018-07-25T00:45:00.192Z,3.40
2018-07-25T00:46:00.206Z,3.70
2018-07-25T00:47:01.095Z,4.10
2018-07-25T00:48:00.221Z,3.80
2018-07-25T00:49:00.237Z,4.00
2018-07-25T00:50:00.250Z,3.80
2018-07-25T00:51:00.248Z,3.90
2018-07-25T00:52:00.246Z,3.90
2018-07-25T00:53:00.296Z,3.70
2018-07-25T00:54:00.272Z,4.00
2018-07-25T00:55:00.271Z,3.70
2018-07-25T00:56:00.288Z,3.70
2018-07-25T00:57:00.296Z,3.80
2018-07-25T00:58:00.310Z,3.70
2018-07-25T00:59:00.303Z,3.90
2018-07-25T01:00:00.320Z,3.90
2018-07-25T01:01:00.332Z,4.00
2018-07-25T01:02:00.334Z,4.10
2018-07-25T01:03:00.345Z,3.40
2018-07-25T01:04:00.351Z,3.80
2018-07-25T01:05:00.367Z,3.70
2018-07-25T01:06:00.367Z,4.20
2018-07-25T01:07:00.374Z,4.30
2018-07-25T01:08:01.115Z,4.10
2018-07-25T01:09:00.388Z,4.40
2018-07-25T01:10:00.398Z,4.50
2018-07-25T01:11:00.406Z,3.90
2018-07-25T01:12:00.419Z,3.90
2018-07-25T01:13:00.433Z,4.20
2018-07-25T01:14:00.424Z,4.00
2018-07-25T01:15:00.435Z,4.20
2018-07-25T01:16:00.450Z,4.60
2018-07-25T01:17:00.450Z,4.20
2018-07-25T01:18:00.462Z,4.40
2018-07-25T01:19:00.469Z,4.40
2018-07-25T01:20:00.474Z,4.30
2018-07-25T01:21:00.487Z,4.40
2018-07-25T01:22:00.491Z,4.70
2018-07-25T01:23:00.503Z,4.50
2018-07-25T01:24:00.502Z,4.40
2018-07-25T01:25:00.508Z,4.60
2018-07-25T01:26:00.522Z,4.60
2018-07-25T01:27:00.531Z,4.60
2018-07-25T01:28:00.541Z,4.50
2018-07-25T01:29:00.546Z,4.30
2018-07-25T01:30:00.552Z,4.50
2018-07-25T01:31:00.560Z,4.40
2018-07-25T01:32:00.584Z,4.50
2018-07-25T01:33:00.582Z,4.40
2018-07-25T01:34:00.586Z,4.50
2018-07-25T01:35:00.667Z,4.30
2018-07-25T01:36:00.597Z,4.60
2018-07-25T01:37:00.618Z,4.80
2018-07-25T01:38:00.620Z,4.80
2018-07-25T01:39:00.634Z,4.50
2018-07-25T01:40:00.636Z,4.40
2018-07-25T01:41:00.642Z,4.50
2018-07-25T01:42:00.647Z,4.40
2018-07-25T01:43:00.659Z,4.80
2018-07-25T01:44:00.670Z,4.90
2018-07-25T01:45:00.680Z,4.70
2018-07-25T01:46:01.617Z,4.80
2018-07-25T01:47:00.689Z,4.80
2018-07-25T01:48:00.696Z,4.50
2018-07-25T01:49:00.703Z,4.70
2018-07-25T01:50:00.711Z,4.40
2018-07-25T01:51:00.713Z,5.20
2018-07-25T01:52:00.732Z,5.00
2018-07-25T01:53:00.734Z,4.40
2018-07-25T01:54:00.741Z,4.40
2018-07-25T01:55:00.749Z,4.50
2018-07-25T01:56:00.755Z,4.50
2018-07-25T01:57:00.756Z,4.50
2018-07-25T01:58:00.773Z,4.60
2018-07-25T01:59:00.777Z,4.40
2018-07-25T02:00:00.789Z,4.40
2018-07-25T02:01:00.789Z,5.00
2018-07-25T02:02:00.804Z,4.10
2018-07-25T02:03:00.809Z,4.60
2018-07-25T02:04:00.813Z,4.80
2018-07-25T02:05:00.826Z,4.90
2018-07-25T02:06:00.827Z,4.60
2018-07-25T02:07:00.835Z,4.50
2018-07-25T02:08:00.846Z,4.40
2018-07-25T02:09:00.854Z,4.30
2018-07-25T02:10:00.864Z,4.30
2018-07-25T02:11:00.863Z,4.80
2018-07-25T02:12:00.893Z,4.40
2018-07-25T02:13:00.879Z,4.30
2018-07-25T02:14:00.890Z,4.80
2018-07-25T02:15:00.928Z,4.70
2018-07-25T02:16:00.908Z,4.20
2018-07-25T02:17:00.912Z,3.90
2018-07-25T02:18:00.920Z,4.70
2018-07-25T02:19:00.933Z,4.40
2018-07-25T02:20:00.932Z,4.00
2018-07-25T02:21:00.945Z,4.10
2018-07-25T02:22:00.948Z,4.80
2018-07-25T02:23:00.956Z,4.60
2018-07-25T02:24:00.968Z,4.60
2018-07-25T02:25:00.977Z,4.20
2018-07-25T02:26:01.632Z,4.40
2018-07-25T02:27:00.988Z,4.30
2018-07-25T02:28:00.990Z,4.00
2018-07-25T02:29:01.001Z,4.10
2018-07-25T02:30:01.016Z,4.50
2018-07-25T02:31:01.011Z,4.20
2018-07-25T02:32:01.029Z,4.00
2018-07-25T02:33:01.036Z,4.10
2018-07-25T02:34:01.037Z,4.70
2018-07-25T02:35:01.047Z,4.20
2018-07-25T02:36:01.052Z,4.20
2018-07-25T02:37:01.059Z,4.40
2018-07-25T02:38:01.070Z,3.70
2018-07-25T02:39:01.077Z,4.50
2018-07-25T02:40:01.085Z,4.20
2018-07-25T02:41:01.096Z,4.30
2018-07-25T02:42:01.101Z,4.50
2018-07-25T02:43:01.103Z,4.00
2018-07-25T02:44:01.115Z,3.80
2018-07-25T02:45:01.130Z,4.20
2018-07-25T02:46:01.127Z,4.50
2018-07-25T02:47:01.643Z,4.50
2018-07-25T02:48:01.142Z,4.40
2018-07-25T02:49:01.160Z,4.60
2018-07-25T02:50:01.159Z,4.20
2018-07-25T02:51:01.176Z,4.10
2018-07-25T02:52:01.174Z,4.70
2018-07-25T02:53:01.172Z,4.80
2018-07-25T02:54:01.198Z,4.80
2018-07-25T02:55:01.195Z,4.40
2018-07-25T02:56:01.205Z,4.20
2018-07-25T02:57:01.294Z,4.40
2018-07-25T02:58:01.209Z,4.30
2018-07-25T02:59:01.228Z,4.40
2018-07-25T03:00:01.232Z,4.10
2018-07-25T03:01:01.239Z,4.70
2018-07-25T03:02:01.239Z,4.20
2018-07-25T03:03:01.245Z,4.10
2018-07-25T03:04:01.255Z,4.40
2018-07-25T03:05:01.261Z,4.40
2018-07-25T03:06:01.274Z,4.60
2018-07-25T03:07:01.277Z,4.50
2018-07-25T03:08:01.282Z,4.40
2018-07-25T03:09:01.312Z,4.30
2018-07-25T03:10:01.302Z,4.80
2018-07-25T03:11:01.311Z,4.50
2018-07-25T03:12:01.315Z,4.50
2018-07-25T03:13:01.316Z,5.10
2018-07-25T03:14:01.327Z,4.10
2018-07-25T03:15:01.339Z,4.70
2018-07-25T03:16:01.375Z,4.80
2018-07-25T03:17:01.395Z,4.70
2018-07-25T03:18:02.149Z,4.60
2018-07-25T03:19:01.368Z,4.50
2018-07-25T03:20:01.377Z,4.70
2018-07-25T03:21:01.375Z,4.90
2018-07-25T03:22:01.397Z,4.40
2018-07-25T03:23:01.397Z,4.50
2018-07-25T03:24:01.398Z,4.30
2018-07-25T03:25:01.408Z,4.50
2018-07-25T03:26:01.415Z,4.50
2018-07-25T03:27:01.423Z,4.60
2018-07-25T03:28:01.435Z,4.40
2018-07-25T03:29:01.435Z,4.90
2018-07-25T03:30:01.441Z,4.30
2018-07-25T03:31:01.456Z,4.50
2018-07-25T03:32:01.461Z,4.50
2018-07-25T03:33:01.457Z,4.70
2018-07-25T03:34:01.473Z,4.60
2018-07-25T03:35:01.470Z,4.50
2018-07-25T03:36:01.482Z,4.40
2018-07-25T03:37:01.505Z,8.30
2018-07-25T03:38:01.500Z,4.90
2018-07-25T03:39:01.508Z,5.30
2018-07-25T03:40:01.514Z,4.80
2018-07-25T03:41:01.520Z,4.40
2018-07-25T03:42:01.527Z,5.10
2018-07-25T03:43:01.528Z,4.50
2018-07-25T03:44:01.540Z,4.70
2018-07-25T03:45:01.551Z,4.60
2018-07-25T03:46:01.551Z,5.10
2018-07-25T03:47:01.561Z,4.60
2018-07-25T03:48:01.564Z,4.60
2018-07-25T03:49:01.581Z,4.90
2018-07-25T03:50:01.584Z,5.00
2018-07-25T03:51:01.584Z,4.90
2018-07-25T03:52:01.589Z,4.70
2018-07-25T03:53:01.605Z,5.10
2018-07-25T03:54:01.603Z,4.90
2018-07-25T03:55:01.613Z,4.50
2018-07-25T03:56:01.620Z,5.00
2018-07-25T03:57:01.621Z,5.10
2018-07-25T03:58:01.638Z,5.00
2018-07-25T03:59:01.640Z,5.10
2018-07-25T04:00:01.655Z,5.40
2018-07-25T04:01:01.672Z,5.20
2018-07-25T04:02:01.683Z,5.50
2018-07-25T04:03:01.665Z,5.50
2018-07-25T04:04:01.681Z,5.10
2018-07-25T04:05:01.687Z,5.10
2018-07-25T04:06:01.696Z,5.10
2018-07-25T04:07:01.702Z,5.20
2018-07-25T04:08:01.701Z,4.90
2018-07-25T04:09:01.718Z,4.90
2018-07-25T04:10:01.762Z,5.50
2018-07-25T04:11:01.729Z,5.40
2018-07-25T04:12:01.732Z,5.00
2018-07-25T04:13:01.734Z,5.20
2018-07-25T04:14:01.752Z,5.70
2018-07-25T04:15:01.761Z,5.30
2018-07-25T04:16:01.765Z,5.50
2018-07-25T04:17:01.773Z,5.20
2018-07-25T04:18:01.768Z,5.50
2018-07-25T04:19:01.789Z,5.40
2018-07-25T04:20:01.784Z,5.60
2018-07-25T04:21:01.791Z,5.50
2018-07-25T04:22:01.807Z,5.20
2018-07-25T04:23:01.823Z,5.40
2018-07-25T04:24:01.821Z,5.10
2018-07-25T04:25:01.819Z,5.20
2018-07-25T04:26:01.840Z,5.00
2018-07-25T04:27:01.842Z,5.20
2018-07-25T04:28:01.852Z,5.90
2018-07-25T04:29:01.853Z,5.40
2018-07-25T04:30:01.860Z,5.80
2018-07-25T04:31:01.875Z,5.50
2018-07-25T04:32:01.885Z,5.50
2018-07-25T04:33:01.883Z,6.10
2018-07-25T04:34:01.893Z,5.50
2018-07-25T04:35:01.894Z,5.60
2018-07-25T04:36:01.906Z,5.20
2018-07-25T04:37:01.908Z,5.20
2018-07-25T04:38:01.919Z,5.20
2018-07-25T04:39:01.929Z,5.80
2018-07-25T04:40:01.930Z,5.60
2018-07-25T04:41:01.937Z,5.10
2018-07-25T04:42:01.950Z,6.00
2018-07-25T04:43:01.963Z,5.90
2018-07-25T04:44:01.957Z,5.80
2018-07-25T04:45:01.972Z,5.80
2018-07-25T04:46:02.022Z,5.80
2018-07-25T04:47:01.982Z,5.50
2018-07-25T04:48:01.995Z,5.50
2018-07-25T04:49:02.004Z,5.20
2018-07-25T04:50:02.004Z,5.90
2018-07-25T04:51:02.012Z,5.70
2018-07-25T04:52:02.023Z,5.80
2018-07-25T04:53:02.044Z,6.10
2018-07-25T04:54:02.046Z,5.90
2018-07-25T04:55:02.057Z,5.80
2018-07-25T04:56:02.075Z,5.30
2018-07-25T04:57:02.066Z,5.50
2018-07-25T04:58:02.066Z,5.80
2018-07-25T04:59:02.075Z,5.60
2018-07-25T05:00:02.081Z,5.60
2018-07-25T05:01:02.086Z,5.10
2018-07-25T05:02:02.097Z,5.50
2018-07-25T05:03:02.100Z,6.00
2018-07-25T05:04:02.113Z,6.00
2018-07-25T05:05:02.118Z,5.40
2018-07-25T05:06:02.121Z,5.80
2018-07-25T05:07:02.154Z,5.90
2018-07-25T05:08:02.148Z,5.30
2018-07-25T05:09:02.144Z,5.50
2018-07-25T05:10:02.161Z,5.70
2018-07-25T05:11:02.168Z,5.90
2018-07-25T05:12:02.166Z,5.60
2018-07-25T05:13:02.182Z,5.80
2018-07-25T05:14:02.181Z,5.80
2018-07-25T05:15:02.193Z,5.90
2018-07-25T05:16:02.204Z,5.90
2018-07-25T05:17:02.211Z,5.90
2018-07-25T05:18:02.291Z,5.70
2018-07-25T05:19:02.225Z,5.30
2018-07-25T05:20:02.233Z,6.30
2018-07-25T05:21:02.249Z,5.80
2018-07-25T05:22:02.241Z,5.40
2018-07-25T05:23:02.263Z,5.80
2018-07-25T05:24:02.256Z,6.10
2018-07-25T05:25:02.275Z,5.90
2018-07-25T05:26:02.284Z,6.60
2018-07-25T05:27:02.288Z,6.20
2018-07-25T05:28:02.301Z,7.00
2018-07-25T05:29:02.309Z,6.00
2018-07-25T05:30:02.320Z,6.30
2018-07-25T05:31:02.322Z,6.20
2018-07-25T05:32:02.326Z,6.20
2018-07-25T05:33:02.336Z,6.10
2018-07-25T05:34:02.344Z,6.20
2018-07-25T05:35:02.350Z,6.10
2018-07-25T05:36:02.360Z,6.00
2018-07-25T05:37:02.367Z,6.70
2018-07-25T05:38:02.396Z,5.70
2018-07-25T05:39:02.382Z,6.00
2018-07-25T05:40:02.397Z,6.20
2018-07-25T05:41:02.400Z,5.80
2018-07-25T05:42:02.412Z,5.60
2018-07-25T05:43:02.424Z,5.30
2018-07-25T05:44:02.425Z,5.60
2018-07-25T05:45:02.445Z,5.60
2018-07-25T05:46:02.448Z,5.40
2018-07-25T05:47:02.459Z,5.70
2018-07-25T05:48:02.476Z,5.80
2018-07-25T05:49:02.486Z,5.80
2018-07-25T05:50:02.503Z,5.40
2018-07-25T05:51:02.512Z,5.30
2018-07-25T05:52:02.516Z,5.10
2018-07-25T05:53:02.533Z,5.30
2018-07-25T05:54:02.537Z,5.30
2018-07-25T05:55:02.552Z,5.20
2018-07-25T05:56:02.568Z,5.80
2018-07-25T05:57:02.580Z,5.10
2018-07-25T05:58:02.596Z,5.40
2018-07-25T05:59:02.606Z,5.20
2018-07-25T06:00:02.625Z,4.80
2018-07-25T06:01:02.635Z,5.30
2018-07-25T06:02:02.647Z,5.10
2018-07-25T06:03:02.796Z,5.10
2018-07-25T06:04:02.680Z,4.90
2018-07-25T06:05:02.854Z,5.10
2018-07-25T06:06:02.728Z,5.20
2018-07-25T06:07:02.720Z,5.00
2018-07-25T06:08:02.724Z,5.00
2018-07-25T06:09:02.746Z,5.10
2018-07-25T06:10:02.756Z,5.30
2018-07-25T06:11:02.778Z,4.90
2018-07-25T06:12:02.788Z,4.90
2018-07-25T06:13:02.805Z,4.80
2018-07-25T06:14:02.822Z,4.80
2018-07-25T06:15:02.843Z,5.40
2018-07-25T06:16:02.853Z,4.90
2018-07-25T06:17:02.890Z,5.20
2018-07-25T06:18:02.881Z,5.00
2018-07-25T06:19:02.899Z,4.90
2018-07-25T06:20:02.923Z,4.90
2018-07-25T06:21:02.924Z,4.70
2018-07-25T06:22:02.947Z,5.80
2018-07-25T06:23:02.960Z,5.20
2018-07-25T06:24:02.980Z,4.50
2018-07-25T06:25:02.996Z,4.90
2018-07-25T06:26:03.118Z,5.10
2018-07-25T06:27:03.029Z,4.80
2018-07-25T06:28:03.049Z,4.70
2018-07-25T06:29:03.053Z,4.60
2018-07-25T06:30:03.085Z,5.30
2018-07-25T06:31:03.090Z,5.20
2018-07-25T06:32:03.113Z,4.80
2018-07-25T06:33:03.122Z,6.30
2018-07-25T06:34:03.141Z,5.20
2018-07-25T06:35:03.181Z,5.50
2018-07-25T06:36:03.191Z,4.60
2018-07-25T06:37:03.202Z,5.20
2018-07-25T06:38:03.279Z,4.90
2018-07-25T06:39:03.243Z,4.80
2018-07-25T06:40:05.230Z,5.00
2018-07-25T06:41:03.263Z,4.70
2018-07-25T06:42:03.293Z,4.70
2018-07-25T06:43:03.304Z,5.00
2018-07-25T06:44:03.326Z,4.40
2018-07-25T06:45:03.353Z,4.90
2018-07-25T06:46:03.369Z,4.70
2018-07-25T06:47:03.376Z,4.80
2018-07-25T06:48:03.402Z,4.60
2018-07-25T06:49:03.424Z,5.10
2018-07-25T06:50:03.430Z,5.20
2018-07-25T06:51:03.457Z,5.20
2018-07-25T06:52:03.474Z,4.90
2018-07-25T06:53:03.491Z,4.90
2018-07-25T06:54:03.543Z,4.90
2018-07-25T06:55:03.549Z,5.00
2018-07-25T06:56:03.551Z,5.00
2018-07-25T06:57:03.572Z,4.60
2018-07-25T06:58:03.591Z,4.50
2018-07-25T06:59:03.613Z,4.60
2018-07-25T07:00:03.627Z,4.70
2018-07-25T07:01:03.648Z,4.90
2018-07-25T07:02:03.672Z,4.60
2018-07-25T07:03:03.706Z,4.80
2018-07-25T07:04:03.743Z,4.90
2018-07-25T07:05:03.729Z,4.90
2018-07-25T07:06:03.745Z,4.30
2018-07-25T07:07:03.785Z,4.60
2018-07-25T07:08:03.789Z,4.50
2018-07-25T07:09:03.813Z,5.00
2018-07-25T07:10:03.836Z,4.60
2018-07-25T07:11:03.849Z,4.50
2018-07-25T07:12:03.892Z,4.60
2018-07-25T07:13:03.893Z,4.50
2018-07-25T07:14:03.920Z,4.30
2018-07-25T07:15:03.934Z,4.10
2018-07-25T07:16:04.000Z,4.50
2018-07-25T07:17:03.975Z,4.80
2018-07-25T07:18:03.998Z,4.40
2018-07-25T07:19:04.017Z,4.70
2018-07-25T07:20:04.044Z,4.30
2018-07-25T07:21:04.074Z,4.20
2018-07-25T07:22:04.077Z,4.30
2018-07-25T07:23:04.102Z,4.40
2018-07-25T07:24:04.189Z,4.40
2018-07-25T07:25:04.147Z,4.40
2018-07-25T07:26:04.172Z,4.40
2018-07-25T07:27:04.185Z,4.60
2018-07-25T07:28:04.216Z,4.40
2018-07-25T07:29:04.238Z,4.50
2018-07-25T07:30:04.253Z,4.30
2018-07-25T07:31:04.294Z,4.00
2018-07-25T07:32:04.300Z,5.00
2018-07-25T07:33:04.316Z,4.60
2018-07-25T07:34:04.347Z,3.80
2018-07-25T07:35:04.366Z,4.40
2018-07-25T07:36:04.394Z,4.20
2018-07-25T07:37:04.409Z,4.10
2018-07-25T07:38:04.461Z,4.40
2018-07-25T07:39:04.450Z,4.50
2018-07-25T07:40:04.473Z,4.40
2018-07-25T07:41:04.501Z,4.00
2018-07-25T07:42:04.521Z,4.10
2018-07-25T07:43:04.542Z,4.50
2018-07-25T07:44:04.601Z,4.40
2018-07-25T07:45:05.245Z,4.50
2018-07-25T07:46:04.629Z,4.60
2018-07-25T07:47:04.638Z,4.20
2018-07-25T07:48:04.656Z,4.40
2018-07-25T07:49:04.683Z,4.20
2018-07-25T07:50:04.702Z,4.50
2018-07-25T07:51:04.745Z,4.20
2018-07-25T07:52:04.750Z,4.00
2018-07-25T07:53:04.768Z,4.20
2018-07-25T07:54:04.822Z,4.00
2018-07-25T07:55:04.815Z,4.00
2018-07-25T07:56:04.837Z,4.20
2018-07-25T07:57:04.860Z,3.90
2018-07-25T07:58:04.886Z,3.90
2018-07-25T07:59:04.905Z,3.60
2018-07-25T08:00:04.942Z,4.10
2018-07-25T08:01:04.956Z,4.60
2018-07-25T08:02:04.978Z,3.60
2018-07-25T08:03:05.012Z,4.30
2018-07-25T08:04:05.022Z,4.10
2018-07-25T08:05:05.090Z,4.50
2018-07-25T08:06:05.079Z,5.00
2018-07-25T08:07:05.095Z,4.10
2018-07-25T08:08:05.124Z,4.00
2018-07-25T08:09:05.143Z,3.80
2018-07-25T08:10:05.171Z,4.00
2018-07-25T08:11:05.191Z,4.10
2018-07-25T08:12:05.214Z,3.80
2018-07-25T08:13:05.236Z,3.80
2018-07-25T08:14:05.257Z,3.50
2018-07-25T08:15:05.288Z,4.10
2018-07-25T08:16:05.309Z,4.10
2018-07-25T08:17:05.368Z,4.70
2018-07-25T08:18:05.444Z,3.60
2018-07-25T08:19:05.435Z,4.20
2018-07-25T08:20:05.406Z,3.90
2018-07-25T08:21:05.446Z,3.40
2018-07-25T08:22:05.468Z,3.40
2018-07-25T08:23:05.481Z,3.80
2018-07-25T08:24:05.499Z,3.70
2018-07-25T08:25:05.527Z,3.90
2018-07-25T08:26:05.554Z,3.40
2018-07-25T08:27:05.566Z,3.80
2018-07-25T08:28:05.606Z,3.40
2018-07-25T08:29:05.618Z,3.10
2018-07-25T08:30:05.647Z,3.30
2018-07-25T08:31:05.678Z,3.20
2018-07-25T08:32:05.699Z,3.30
2018-07-25T08:33:05.732Z,3.50
2018-07-25T08:34:05.757Z,3.70
2018-07-25T08:35:05.763Z,3.50
2018-07-25T08:36:05.797Z,3.20
2018-07-25T08:37:05.817Z,3.50
2018-07-25T08:38:05.842Z,3.20
2018-07-25T08:39:05.871Z,3.70
2018-07-25T08:40:05.890Z,3.20
2018-07-25T08:41:05.956Z,3.10
2018-07-25T08:42:05.939Z,3.20
2018-07-25T08:43:05.964Z,3.00
2018-07-25T08:44:05.999Z,3.20
2018-07-25T08:45:06.010Z,2.80
2018-07-25T08:46:06.049Z,2.80
2018-07-25T08:47:06.070Z,2.70
2018-07-25T08:48:06.092Z,3.00
2018-07-25T08:49:06.125Z,3.20
2018-07-25T08:50:06.137Z,3.00
2018-07-25T08:51:06.165Z,2.90
2018-07-25T08:52:06.197Z,3.50
2018-07-25T08:53:06.212Z,2.90
2018-07-25T08:54:06.246Z,3.00
2018-07-25T08:55:06.269Z,2.40
2018-07-25T08:56:06.295Z,2.70
2018-07-25T08:57:06.321Z,2.40
2018-07-25T08:58:06.342Z,2.60
2018-07-25T08:59:06.366Z,2.60
2018-07-25T09:00:06.398Z,2.50
2018-07-25T09:01:06.425Z,2.80
2018-07-25T09:02:06.449Z,2.40
2018-07-25T09:03:06.478Z,2.40
2018-07-25T09:04:06.492Z,2.60
2018-07-25T09:05:06.525Z,2.60
2018-07-25T09:06:06.545Z,2.30
2018-07-25T09:07:06.579Z,2.60
2018-07-25T09:08:06.603Z,2.40
2018-07-25T09:09:06.622Z,2.60
2018-07-25T09:10:06.656Z,2.60
2018-07-25T09:11:06.673Z,2.50
2018-07-25T09:12:06.704Z,2.50
2018-07-25T09:13:06.828Z,2.60
2018-07-25T09:14:06.750Z,2.80
2018-07-25T09:15:06.824Z,2.50
2018-07-25T09:16:06.799Z,2.80
2018-07-25T09:17:06.855Z,2.90
2018-07-25T09:18:06.913Z,2.50
2018-07-25T09:19:06.922Z,2.30
2018-07-25T09:20:06.918Z,2.60
2018-07-25T09:21:06.945Z,2.40
2018-07-25T09:22:06.952Z,2.50
2018-07-25T09:23:06.982Z,2.40
2018-07-25T09:24:07.012Z,2.60
2018-07-25T09:25:07.068Z,2.70
2018-07-25T09:26:07.071Z,2.50
2018-07-25T09:27:07.092Z,3.30
2018-07-25T09:28:07.111Z,2.50
2018-07-25T09:29:07.138Z,2.80
2018-07-25T09:30:07.178Z,2.50
2018-07-25T09:31:07.200Z,2.30
2018-07-25T09:32:07.218Z,2.70
2018-07-25T09:33:07.249Z,2.40
2018-07-25T09:34:07.332Z,2.40
2018-07-25T09:35:07.298Z,2.40
2018-07-25T09:36:07.326Z,2.60
2018-07-25T09:37:07.348Z,2.40
2018-07-25T09:38:07.370Z,2.60
2018-07-25T09:39:07.394Z,2.40
2018-07-25T09:40:07.434Z,2.40
2018-07-25T09:41:07.478Z,2.30
2018-07-25T09:42:07.477Z,2.90
2018-07-25T09:43:07.510Z,2.90
2018-07-25T09:44:07.541Z,3.70
2018-07-25T09:45:07.558Z,2.90
2018-07-25T09:46:07.605Z,2.80
2018-07-25T09:47:07.617Z,2.70
2018-07-25T09:48:07.629Z,2.80
2018-07-25T09:49:07.654Z,2.80
2018-07-25T09:50:07.689Z,2.70
2018-07-25T09:51:07.709Z,2.40
2018-07-25T09:52:07.745Z,2.40
2018-07-25T09:53:07.837Z,2.70
2018-07-25T09:54:07.787Z,2.60
2018-07-25T09:55:08.780Z,3.00
2018-07-25T09:56:07.875Z,3.20
2018-07-25T09:57:07.867Z,2.40
2018-07-25T09:58:07.899Z,2.50
2018-07-25T09:59:07.927Z,3.40
2018-07-25T10:00:07.968Z,2.70
2018-07-25T10:01:08.059Z,2.60
2018-07-25T10:02:08.034Z,2.70
2018-07-25T10:03:08.053Z,2.40
2018-07-25T10:04:08.797Z,3.10
2018-07-25T10:05:08.110Z,2.80
2018-07-25T10:06:08.805Z,2.70
2018-07-25T10:07:08.158Z,2.70
2018-07-25T10:08:08.177Z,2.70
2018-07-25T10:09:08.201Z,2.60
2018-07-25T10:10:08.805Z,2.70
2018-07-25T10:11:08.277Z,2.50
2018-07-25T10:12:08.319Z,2.80
2018-07-25T10:13:08.303Z,2.50
2018-07-25T10:14:08.326Z,2.70
2018-07-25T10:15:09.391Z,2.80
2018-07-25T10:16:08.384Z,2.70
2018-07-25T10:17:08.406Z,3.00
2018-07-25T10:18:08.438Z,2.60
2018-07-25T10:19:08.472Z,2.50
2018-07-25T10:20:08.486Z,3.00
2018-07-25T10:21:08.511Z,2.70
2018-07-25T10:22:10.295Z,2.70
2018-07-25T10:23:08.583Z,2.70
2018-07-25T10:24:08.599Z,2.60
2018-07-25T10:25:08.611Z,3.00
2018-07-25T10:26:08.638Z,2.70
2018-07-25T10:27:08.706Z,2.50
2018-07-25T10:28:08.701Z,2.60
2018-07-25T10:29:08.721Z,2.90
2018-07-25T10:30:08.741Z,2.70
2018-07-25T10:31:08.791Z,2.90
2018-07-25T10:32:09.295Z,2.60
2018-07-25T10:33:09.795Z,2.80
2018-07-25T10:34:08.846Z,2.60
2018-07-25T10:35:08.869Z,2.80
2018-07-25T10:36:08.903Z,3.10
2018-07-25T10:37:08.926Z,3.00
2018-07-25T10:38:08.948Z,2.60
2018-07-25T10:39:09.060Z,2.50
2018-07-25T10:40:09.002Z,3.00
2018-07-25T10:41:09.021Z,2.70
2018-07-25T10:42:09.054Z,2.70
2018-07-25T10:43:09.073Z,2.60
2018-07-25T10:44:09.099Z,2.90
2018-07-25T10:45:09.802Z,2.70
2018-07-25T10:46:09.798Z,2.90
2018-07-25T10:47:09.179Z,2.50
2018-07-25T10:48:10.795Z,2.70
2018-07-25T10:49:09.798Z,2.70
2018-07-25T10:50:09.255Z,2.50
2018-07-25T10:51:09.797Z,3.00
2018-07-25T10:52:09.301Z,2.50
2018-07-25T10:53:09.325Z,2.70
2018-07-25T10:54:09.351Z,2.60
2018-07-25T10:55:10.297Z,2.70
2018-07-25T10:56:09.403Z,2.60
2018-07-25T10:57:09.425Z,2.50
2018-07-25T10:58:09.448Z,3.30
2018-07-25T10:59:09.473Z,2.40
2018-07-25T11:00:09.497Z,2.70
2018-07-25T11:01:09.520Z,2.60
2018-07-25T11:02:10.416Z,2.60
2018-07-25T11:03:09.573Z,2.40
2018-07-25T11:04:09.598Z,2.80
2018-07-25T11:05:09.618Z,2.30
2018-07-25T11:06:09.645Z,2.60
2018-07-25T11:07:09.667Z,2.90
2018-07-25T11:08:09.698Z,2.70
2018-07-25T11:09:10.300Z,2.70
2018-07-25T11:10:09.739Z,2.40
2018-07-25T11:11:09.765Z,2.40
2018-07-25T11:12:10.306Z,2.60
2018-07-25T11:13:10.806Z,2.30
2018-07-25T11:14:09.845Z,2.30
2018-07-25T11:15:10.801Z,2.40
2018-07-25T11:16:11.807Z,2.20
2018-07-25T11:17:09.908Z,2.60
2018-07-25T11:18:09.937Z,2.60
2018-07-25T11:19:09.953Z,2.60
2018-07-25T11:20:10.805Z,2.40
2018-07-25T11:21:12.804Z,2.50
2018-07-25T11:22:10.024Z,2.30
2018-07-25T11:23:10.113Z,2.70
2018-07-25T11:24:10.804Z,2.50
2018-07-25T11:25:10.806Z,4.50
2018-07-25T11:26:10.118Z,2.30
2018-07-25T11:27:10.152Z,3.20
2018-07-25T11:28:10.804Z,2.60
2018-07-25T11:29:10.810Z,2.30
2018-07-25T11:30:10.211Z,2.40
2018-07-25T11:31:10.808Z,2.30
2018-07-25T11:32:10.263Z,2.30
2018-07-25T11:33:10.289Z,2.40
2018-07-25T11:34:10.309Z,2.20
2018-07-25T11:35:10.328Z,2.20
2018-07-25T11:36:10.369Z,2.10
2018-07-25T11:37:10.374Z,2.30
2018-07-25T11:38:10.433Z,2.60
2018-07-25T11:39:11.308Z,2.50
2018-07-25T11:40:11.308Z,2.40
2018-07-25T11:41:10.467Z,2.30
2018-07-25T11:42:10.487Z,2.50
2018-07-25T11:43:10.511Z,2.50
2018-07-25T11:44:10.535Z,2.20
2018-07-25T11:45:10.555Z,2.60
2018-07-25T11:46:10.580Z,2.30
2018-07-25T11:47:10.607Z,2.30
2018-07-25T11:48:13.309Z,2.30
2018-07-25T11:49:10.645Z,2.20
2018-07-25T11:50:10.708Z,2.40
2018-07-25T11:51:10.685Z,2.20
2018-07-25T11:52:10.708Z,2.10
2018-07-25T11:53:10.733Z,2.10
2018-07-25T11:54:10.751Z,2.40
2018-07-25T11:55:10.775Z,2.10
2018-07-25T11:56:10.795Z,2.10
2018-07-25T11:57:10.820Z,2.30
2018-07-25T11:58:10.839Z,2.20
2018-07-25T11:59:11.814Z,2.30
2018-07-25T12:00:10.888Z,2.10
2018-07-25T12:01:10.951Z,2.00
2018-07-25T12:02:10.923Z,2.20
2018-07-25T12:03:10.949Z,2.50
2018-07-25T12:04:11.819Z,2.50
2018-07-25T12:05:10.985Z,2.30
2018-07-25T12:06:11.007Z,2.40
2018-07-25T12:07:11.036Z,2.30
2018-07-25T12:08:11.051Z,2.30
2018-07-25T12:09:13.818Z,2.50
2018-07-25T12:10:11.090Z,2.10
2018-07-25T12:11:11.109Z,2.40
2018-07-25T12:12:11.128Z,2.50
2018-07-25T12:13:11.150Z,3.40
2018-07-25T12:14:11.168Z,2.50
2018-07-25T12:15:12.816Z,2.40
2018-07-25T12:16:11.210Z,2.40
2018-07-25T12:17:11.223Z,2.30
2018-07-25T12:18:11.838Z,2.40
2018-07-25T12:19:12.821Z,2.80
2018-07-25T12:20:15.829Z,2.40
2018-07-25T12:21:11.323Z,2.20
2018-07-25T12:22:11.320Z,2.50
2018-07-25T12:23:11.337Z,2.60
2018-07-25T12:24:11.361Z,2.70
2018-07-25T12:25:12.335Z,2.30
2018-07-25T12:26:11.392Z,2.30
2018-07-25T12:27:12.322Z,2.40
2018-07-25T12:28:11.430Z,2.70
2018-07-25T12:29:11.446Z,2.30
2018-07-25T12:30:11.459Z,2.30
2018-07-25T12:31:11.477Z,2.50
2018-07-25T12:32:11.552Z,2.40
2018-07-25T12:33:11.511Z,2.90
2018-07-25T12:34:11.533Z,2.70
2018-07-25T12:35:11.556Z,2.10
2018-07-25T12:36:12.326Z,2.40
2018-07-25T12:37:11.585Z,2.60
2018-07-25T12:38:12.330Z,2.60
2018-07-25T12:39:11.620Z,2.40
2018-07-25T12:40:11.640Z,2.50
2018-07-25T12:41:14.328Z,2.30
2018-07-25T12:42:11.669Z,2.60
2018-07-25T12:43:11.689Z,2.20
2018-07-25T12:44:11.709Z,2.50
2018-07-25T12:45:11.724Z,2.20
2018-07-25T12:46:11.739Z,2.20
2018-07-25T12:47:11.760Z,2.30
2018-07-25T12:48:12.330Z,2.40
2018-07-25T12:49:11.792Z,2.50
2018-07-25T12:50:13.331Z,2.20
2018-07-25T12:51:11.828Z,2.40
2018-07-25T12:52:13.832Z,2.20
2018-07-25T12:53:11.873Z,2.30
2018-07-25T12:54:11.952Z,2.50
2018-07-25T12:55:11.894Z,2.30
2018-07-25T12:56:11.926Z,2.70
2018-07-25T12:57:13.837Z,2.30
2018-07-25T12:58:11.951Z,2.50
2018-07-25T12:59:18.834Z,2.50
2018-07-25T13:00:13.836Z,2.50
2018-07-25T13:01:11.997Z,2.30
2018-07-25T13:02:12.011Z,2.40
2018-07-25T13:03:12.029Z,2.70
2018-07-25T13:04:14.841Z,2.30
2018-07-25T13:05:12.052Z,2.10
2018-07-25T13:06:12.072Z,2.20
2018-07-25T13:07:12.075Z,2.70
2018-07-25T13:08:12.092Z,2.90
2018-07-25T13:09:12.163Z,2.50
2018-07-25T13:10:12.123Z,2.60
2018-07-25T13:11:12.142Z,2.60
2018-07-25T13:12:12.157Z,2.60
2018-07-25T13:13:12.171Z,2.40
2018-07-25T13:14:12.193Z,2.50
2018-07-25T13:15:12.207Z,2.30
2018-07-25T13:16:12.222Z,2.50
2018-07-25T13:17:12.271Z,2.50
2018-07-25T13:18:12.254Z,2.60
2018-07-25T13:19:12.270Z,2.30